Flight Track Log - Related Links

Times and Time Zones

All times are in EST time to prevent confusion due to time zone crossing. See the EGF3765 flight status page for this flight to view local times or setup timezone preferences in your user account.

Time Position Orientation Groundspeed Altitude Reporting Facility
EST Latitude Longitude Course Direction KTS MPH feet Rate Location/Type
Sat 10:54:35 AM 42.0333 -87.9833 345° North 204 235 3,400  Level Chicago TRACON
Sat 10:56:00 AM 42.2636 -87.9934 346° North  Level FlightAware Approximate
Sat 10:56:22 AM 42.1428 -88.0089 350° North 240 276 7,200  Level Chicago Center
Sat 10:57:00 AM 42.3512 -88.0337 350° North  Level FlightAware Approximate
Sat 10:57:23 AM 42.2161 -88.0231 352° North 262 302 9,500  Level Chicago Center
Sat 10:58:00 AM 42.4515 -88.0570 352° North  Level FlightAware Approximate
Sat 10:58:24 AM 42.2967 -88.0375 352° North 287 330 10,800  Level Chicago Center
Sat 10:59:00 AM 42.5458 -88.0937 345° North  Level FlightAware Approximate
Sat 10:59:26 AM 42.3944 -88.0528 353° North 324 373 12,000  Level Chicago Center
Sat 11:00:00 AM 42.6424 -88.1282 345° North  Level FlightAware Approximate
Sat 11:00:27 AM 42.4886 -88.0728 351° North 339 390 13,300  Level Chicago Center
Sat 11:01:28 AM 42.5792 -88.1064 345° North 339 390 14,700 1,317 Climbing Chicago Center
Sat 11:02:30 AM 42.6747 -88.1375 347° North 349 402 16,000 1,317 Climbing Chicago Center
Sat 11:03:31 AM 42.7561 -88.1933 333° Northwest 342 394 17,400 1,230 Climbing Chicago Center
Sat 11:04:32 AM 42.8058 -88.2964 303° West 330 380 18,500 1,180 Climbing Chicago Center
Sat 11:05:33 AM 42.8581 -88.3983 305° West 327 376 19,800 1,273 Climbing Chicago Center
Sat 11:08:37 AM 43.0194 -88.7244 310° West 349 402 23,700 1,317 Climbing Chicago Center
Sat 11:09:39 AM 43.0867 -88.8572 305° West 352 405 25,200 1,415 Climbing Chicago Center
Sat 11:10:40 AM 43.1411 -88.9703 303° West 354 407 26,600 1,328 Climbing Chicago Center
Sat 11:11:41 AM 43.1986 -89.0831 305° West 360 414 27,900 1,220 Climbing Chicago Center
Sat 11:12:43 AM 43.2508 -89.1933 303° West 348 400 29,100 1,024 Climbing Chicago Center
Sat 11:13:44 AM 43.3047 -89.3025 304° West 345 397 30,000 443 Climbing Chicago Center
Sat 11:14:00 AM 43.3062 -89.3659 310° West  Level FlightAware Approximate
Sat 11:14:45 AM 43.3586 -89.4178 303° West 354 407 30,000  Level Chicago Center
Sat 11:16:20 AM 43.4550 -89.6158 304° West 385 443 30,000  Level Minneapolis Center
Sat 11:17:21 AM 43.5167 -89.7456 303° West 399 459 30,000  Level Minneapolis Center
Sat 11:18:22 AM 43.5781 -89.8719 304° West 399 459 30,000  Level Minneapolis Center
Sat 11:19:23 AM 43.6386 -89.9994 303° West 398 458 30,000  Level Minneapolis Center
Sat 11:20:53 AM 43.7356 -90.2050 303° West 402 463 30,000  Level Chicago Center
Sat 11:21:55 AM 43.7931 -90.3328 302° West 400 460 30,000  Level Chicago Center
Sat 11:23:28 AM 43.8783 -90.5117 304° West 396 456 30,000  Level Minneapolis Center
Sat 11:24:29 AM 43.9483 -90.6644 303° West 399 459 30,000  Level Minneapolis Center
Sat 11:25:31 AM 44.0081 -90.7933 303° West 399 459 30,000  Level Minneapolis Center
Sat 11:26:32 AM 44.0669 -90.9217 303° West 398 458 30,000  Level Minneapolis Center
Sat 11:29:35 AM 44.2542 -91.3328 303° West 401 461 30,000  Level Minneapolis Center
Sat 11:30:36 AM 44.3156 -91.4631 303° West 402 463 30,000  Level Minneapolis Center
Sat 11:31:38 AM 44.3742 -91.5969 302° West 403 464 30,000  Level Minneapolis Center
Sat 11:32:39 AM 44.4328 -91.7306 302° West 404 465 30,000  Level Minneapolis Center
Sat 11:33:40 AM 44.4931 -91.8636 302° West 406 467 30,000  Level Minneapolis Center
Sat 11:34:41 AM 44.5522 -91.9989 302° West 407 468 30,000  Level Minneapolis Center
Sat 11:35:42 AM 44.6117 -92.1347 302° West 410 472 30,000  Level Minneapolis Center
Sat 11:37:46 AM 44.7314 -92.4067 301° West 411 473 30,000  Level Minneapolis Center
Sat 11:38:47 AM 44.8025 -92.5717 301° West 413 475 30,000  Level Minneapolis Center
Sat 11:39:49 AM 44.8614 -92.7078 301° West 411 473 30,000  Level Minneapolis Center
Sat 11:41:51 AM 44.9778 -92.9806 301° West 410 472 30,000  Level Minneapolis Center
Sat 11:43:54 AM 45.0931 -93.2522 297° West 408 470 30,000  Level Minneapolis Center
Sat 11:45:56 AM 45.2358 -93.5392 308° West 409 471 30,000  Level Minneapolis Center
Sat 11:46:58 AM 45.3050 -93.6658 308° West 408 470 30,000  Level Minneapolis Center
Sat 11:50:01 AM 45.5108 -94.0497 311° West 408 470 30,000  Level Minneapolis Center
Sat 11:51:03 AM 45.5794 -94.1772 308° West 408 470 30,000  Level Minneapolis Center
Sat 11:53:05 AM 45.7161 -94.4325 308° West 405 466 30,000  Level Minneapolis Center
Sat 11:54:07 AM 45.7969 -94.5889 307° West 406 467 30,000  Level Minneapolis Center
Sat 11:55:00 AM 45.7912 -94.5686 311° West  Level FlightAware Approximate
Sat 11:56:09 AM 45.9322 -94.8478 307° West 407 468 30,000  Level Minneapolis Center
Sat 11:57:11 AM 45.9994 -94.9761 307° West 405 466 30,000  Level Minneapolis Center
Sat 11:58:12 AM 46.0697 -95.1139 306° West 406 467 30,000 -686 Level Minneapolis Center
Sat 12:02:17 PM 46.3372 -95.6403 302° West 411 473 26,500 -1,309 Descending Minneapolis Center
Sat 12:03:19 PM 46.4075 -95.7786 306° West 423 487 23,300 -3,268 Descending Minneapolis Center
Sat 12:04:20 PM 46.4831 -95.9297 306° West 412 474 19,800 -3,098 Descending Minneapolis Center
Sat 12:05:21 PM 46.5436 -96.0619 304° West 375 432 17,000 -2,634 Descending Minneapolis Center
Sat 12:06:23 PM 46.5922 -96.2000 297° West 367 422 14,400 -1,951 Descending Minneapolis Center
Sat 12:09:27 PM 46.7194 -96.5467 306° West 272 313 9,000 -1,927 Descending Minneapolis Center
Sat 12:10:29 PM 46.7514 -96.6344 298° West 257 296 6,500 -2,390 Descending Minneapolis Center
Sat 12:11:30 PM 46.7839 -96.7278 297° West 248 285 4,100 -1,756 Descending Minneapolis Center
Sat 12:12:32 PM 46.8111 -96.8111 296° West 213 245 2,900 -976 Descending Minneapolis Center
Sat 12:13:33 PM 46.8539 -96.8167 355° North 151 174 2,100 -787 Descending Minneapolis Center

Login

Don't have an account? Register now (free) for customized features, flight alerts, and more!